sensor_id;sensor_type;location;lat;lon;timestamp;P1;durP1;ratioP1;P2;durP2;ratioP2
63693;SDS011;49839;51.798;10.954;2022-09-01T00:01:05;3.38;;;0.70;;
63693;SDS011;49839;51.798;10.954;2022-09-01T00:03:38;1.50;;;0.60;;
63693;SDS011;49839;51.798;10.954;2022-09-01T00:06:07;1.25;;;0.73;;
63693;SDS011;49839;51.798;10.954;2022-09-01T00:08:35;3.03;;;0.60;;
63693;SDS011;49839;51.798;10.954;2022-09-01T00:11:03;4.85;;;0.80;;
63693;SDS011;49839;51.798;10.954;2022-09-01T00:13:30;2.63;;;0.80;;
63693;SDS011;49839;51.798;10.954;2022-09-01T00:15:59;2.17;;;0.85;;
63693;SDS011;49839;51.798;10.954;2022-09-01T00:18:29;2.42;;;0.73;;
63693;SDS011;49839;51.798;10.954;2022-09-01T00:20:58;4.78;;;0.77;;
63693;SDS011;49839;51.798;10.954;2022-09-01T00:23:27;3.03;;;0.93;;
63693;SDS011;49839;51.798;10.954;2022-09-01T00:25:55;1.97;;;0.90;;
63693;SDS011;49839;51.798;10.954;2022-09-01T00:28:22;3.50;;;0.80;;
63693;SDS011;49839;51.798;10.954;2022-09-01T00:30:52;2.70;;;1.00;;
63693;SDS011;49839;51.798;10.954;2022-09-01T00:33:20;3.03;;;0.60;;
63693;SDS011;49839;51.798;10.954;2022-09-01T00:35:48;1.63;;;0.70;;
63693;SDS011;49839;51.798;10.954;2022-09-01T00:38:15;2.05;;;0.80;;
63693;SDS011;49839;51.798;10.954;2022-09-01T00:40:44;2.13;;;0.80;;
63693;SDS011;49839;51.798;10.954;2022-09-01T00:43:13;6.32;;;0.90;;
63693;SDS011;49839;51.798;10.954;2022-09-01T00:45:43;3.80;;;1.20;;
63693;SDS011;49839;51.798;10.954;2022-09-01T00:48:10;3.05;;;0.82;;
63693;SDS011;49839;51.798;10.954;2022-09-01T00:50:39;3.05;;;1.17;;
63693;SDS011;49839;51.798;10.954;2022-09-01T00:53:08;4.15;;;0.80;;
63693;SDS011;49839;51.798;10.954;2022-09-01T00:55:36;2.80;;;0.80;;
63693;SDS011;49839;51.798;10.954;2022-09-01T00:58:06;4.85;;;0.60;;
63693;SDS011;49839;51.798;10.954;2022-09-01T01:00:45;1.95;;;0.60;;
63693;SDS011;49839;51.798;10.954;2022-09-01T01:03:14;3.50;;;0.73;;
63693;SDS011;49839;51.798;10.954;2022-09-01T01:05:43;4.70;;;0.90;;
63693;SDS011;49839;51.798;10.954;2022-09-01T01:08:19;3.30;;;0.82;;
63693;SDS011;49839;51.798;10.954;2022-09-01T01:10:56;4.32;;;0.90;;
63693;SDS011;49839;51.798;10.954;2022-09-01T01:13:24;3.33;;;0.77;;
63693;SDS011;49839;51.798;10.954;2022-09-01T01:15:54;3.38;;;0.77;;
63693;SDS011;49839;51.798;10.954;2022-09-01T01:18:21;2.42;;;0.80;;
63693;SDS011;49839;51.798;10.954;2022-09-01T01:23:44;1.33;;;0.68;;
63693;SDS011;49839;51.798;10.954;2022-09-01T01:26:18;2.85;;;0.80;;
63693;SDS011;49839;51.798;10.954;2022-09-01T01:28:46;2.95;;;1.00;;
63693;SDS011;49839;51.798;10.954;2022-09-01T01:31:15;3.50;;;0.75;;
63693;SDS011;49839;51.798;10.954;2022-09-01T01:33:48;1.88;;;0.70;;
63693;SDS011;49839;51.798;10.954;2022-09-01T01:36:18;3.10;;;0.77;;
63693;SDS011;49839;51.798;10.954;2022-09-01T01:38:56;1.75;;;0.63;;
63693;SDS011;49839;51.798;10.954;2022-09-01T01:41:28;1.40;;;0.65;;
63693;SDS011;49839;51.798;10.954;2022-09-01T01:43:57;4.15;;;0.90;;
63693;SDS011;49839;51.798;10.954;2022-09-01T01:46:29;3.05;;;0.90;;
63693;SDS011;49839;51.798;10.954;2022-09-01T01:48:58;3.20;;;0.80;;
63693;SDS011;49839;51.798;10.954;2022-09-01T01:51:28;2.08;;;0.88;;
63693;SDS011;49839;51.798;10.954;2022-09-01T01:53:57;1.67;;;0.80;;
63693;SDS011;49839;51.798;10.954;2022-09-01T01:56:28;6.25;;;0.90;;
63693;SDS011;49839;51.798;10.954;2022-09-01T01:58:56;2.50;;;0.77;;
63693;SDS011;49839;51.798;10.954;2022-09-01T02:01:25;5.85;;;1.00;;
63693;SDS011;49839;51.798;10.954;2022-09-01T02:03:54;3.75;;;0.82;;
63693;SDS011;49839;51.798;10.954;2022-09-01T02:06:23;3.92;;;0.75;;
63693;SDS011;49839;51.798;10.954;2022-09-01T02:08:53;5.03;;;0.80;;
63693;SDS011;49839;51.798;10.954;2022-09-01T02:11:23;2.50;;;0.70;;
63693;SDS011;49839;51.798;10.954;2022-09-01T02:13:53;1.63;;;0.70;;
63693;SDS011;49839;51.798;10.954;2022-09-01T02:16:22;3.38;;;0.80;;
63693;SDS011;49839;51.798;10.954;2022-09-01T02:18:50;4.28;;;0.90;;
63693;SDS011;49839;51.798;10.954;2022-09-01T02:21:19;1.77;;;0.73;;
63693;SDS011;49839;51.798;10.954;2022-09-01T02:23:50;2.28;;;0.90;;
63693;SDS011;49839;51.798;10.954;2022-09-01T02:26:22;5.60;;;0.82;;
63693;SDS011;49839;51.798;10.954;2022-09-01T02:28:56;3.15;;;0.90;;
63693;SDS011;49839;51.798;10.954;2022-09-01T02:31:30;1.42;;;0.70;;
63693;SDS011;49839;51.798;10.954;2022-09-01T02:34:00;1.55;;;0.73;;
63693;SDS011;49839;51.798;10.954;2022-09-01T02:36:28;3.65;;;0.73;;
63693;SDS011;49839;51.798;10.954;2022-09-01T02:39:00;2.78;;;0.80;;
63693;SDS011;49839;51.798;10.954;2022-09-01T02:41:27;4.18;;;0.85;;
63693;SDS011;49839;51.798;10.954;2022-09-01T02:43:59;3.47;;;0.70;;
63693;SDS011;49839;51.798;10.954;2022-09-01T02:48:55;3.05;;;0.90;;
63693;SDS011;49839;51.798;10.954;2022-09-01T02:51:23;2.78;;;0.80;;
63693;SDS011;49839;51.798;10.954;2022-09-01T02:53:51;1.88;;;0.73;;
63693;SDS011;49839;51.798;10.954;2022-09-01T02:56:21;4.00;;;0.98;;
63693;SDS011;49839;51.798;10.954;2022-09-01T02:58:52;4.53;;;0.88;;
63693;SDS011;49839;51.798;10.954;2022-09-01T03:01:23;3.85;;;1.10;;
63693;SDS011;49839;51.798;10.954;2022-09-01T03:03:55;1.85;;;0.88;;
63693;SDS011;49839;51.798;10.954;2022-09-01T03:06:25;1.88;;;0.70;;
63693;SDS011;49839;51.798;10.954;2022-09-01T03:08:54;4.88;;;0.90;;
63693;SDS011;49839;51.798;10.954;2022-09-01T03:11:26;4.03;;;0.90;;
63693;SDS011;49839;51.798;10.954;2022-09-01T03:13:54;3.33;;;0.90;;
63693;SDS011;49839;51.798;10.954;2022-09-01T03:16:24;2.40;;;0.88;;
63693;SDS011;49839;51.798;10.954;2022-09-01T03:18:51;2.00;;;0.70;;
63693;SDS011;49839;51.798;10.954;2022-09-01T03:21:19;4.30;;;1.00;;
63693;SDS011;49839;51.798;10.954;2022-09-01T03:23:48;1.80;;;0.90;;
63693;SDS011;49839;51.798;10.954;2022-09-01T03:26:18;3.00;;;1.33;;
63693;SDS011;49839;51.798;10.954;2022-09-01T03:28:48;2.75;;;1.00;;
63693;SDS011;49839;51.798;10.954;2022-09-01T03:31:16;5.13;;;1.27;;
63693;SDS011;49839;51.798;10.954;2022-09-01T03:33:46;5.22;;;1.00;;
63693;SDS011;49839;51.798;10.954;2022-09-01T03:36:14;3.13;;;0.80;;
63693;SDS011;49839;51.798;10.954;2022-09-01T03:38:45;3.03;;;1.05;;
63693;SDS011;49839;51.798;10.954;2022-09-01T03:41:15;4.30;;;1.00;;
63693;SDS011;49839;51.798;10.954;2022-09-01T03:43:45;7.13;;;1.30;;
63693;SDS011;49839;51.798;10.954;2022-09-01T03:46:14;2.72;;;1.00;;
63693;SDS011;49839;51.798;10.954;2022-09-01T03:48:47;3.95;;;0.82;;
63693;SDS011;49839;51.798;10.954;2022-09-01T03:51:16;5.00;;;1.17;;
63693;SDS011;49839;51.798;10.954;2022-09-01T03:53:46;4.88;;;0.90;;
63693;SDS011;49839;51.798;10.954;2022-09-01T03:56:13;3.10;;;1.10;;
63693;SDS011;49839;51.798;10.954;2022-09-01T03:58:42;1.90;;;0.82;;
63693;SDS011;49839;51.798;10.954;2022-09-01T04:01:12;4.85;;;1.15;;
63693;SDS011;49839;51.798;10.954;2022-09-01T04:03:41;1.92;;;1.08;;
63693;SDS011;49839;51.798;10.954;2022-09-01T04:06:15;4.82;;;1.27;;
63693;SDS011;49839;51.798;10.954;2022-09-01T04:08:44;4.97;;;1.02;;
63693;SDS011;49839;51.798;10.954;2022-09-01T04:11:13;3.22;;;1.10;;
63693;SDS011;49839;51.798;10.954;2022-09-01T04:13:44;5.20;;;1.65;;
63693;SDS011;49839;51.798;10.954;2022-09-01T04:16:16;4.55;;;1.50;;
63693;SDS011;49839;51.798;10.954;2022-09-01T04:18:59;5.80;;;1.55;;
63693;SDS011;49839;51.798;10.954;2022-09-01T04:21:28;3.65;;;1.13;;
63693;SDS011;49839;51.798;10.954;2022-09-01T04:23:57;2.50;;;1.08;;
63693;SDS011;49839;51.798;10.954;2022-09-01T04:26:30;4.82;;;1.33;;
63693;SDS011;49839;51.798;10.954;2022-09-01T04:28:59;4.30;;;1.30;;
63693;SDS011;49839;51.798;10.954;2022-09-01T04:31:27;2.58;;;1.15;;
63693;SDS011;49839;51.798;10.954;2022-09-01T04:33:56;7.10;;;1.58;;
63693;SDS011;49839;51.798;10.954;2022-09-01T04:36:25;2.83;;;1.30;;
63693;SDS011;49839;51.798;10.954;2022-09-01T04:39:00;4.70;;;1.58;;
63693;SDS011;49839;51.798;10.954;2022-09-01T04:41:34;4.32;;;1.50;;
63693;SDS011;49839;51.798;10.954;2022-09-01T04:44:03;4.13;;;1.30;;
63693;SDS011;49839;51.798;10.954;2022-09-01T04:46:34;5.82;;;1.27;;
63693;SDS011;49839;51.798;10.954;2022-09-01T04:49:05;3.40;;;1.50;;
63693;SDS011;49839;51.798;10.954;2022-09-01T04:51:38;5.15;;;1.50;;
63693;SDS011;49839;51.798;10.954;2022-09-01T04:54:08;5.55;;;1.85;;
63693;SDS011;49839;51.798;10.954;2022-09-01T04:56:40;6.93;;;1.70;;
63693;SDS011;49839;51.798;10.954;2022-09-01T04:59:10;9.82;;;1.60;;
63693;SDS011;49839;51.798;10.954;2022-09-01T05:01:39;5.27;;;1.50;;
63693;SDS011;49839;51.798;10.954;2022-09-01T05:04:11;5.82;;;1.50;;
63693;SDS011;49839;51.798;10.954;2022-09-01T05:06:42;9.73;;;1.40;;
63693;SDS011;49839;51.798;10.954;2022-09-01T05:09:12;4.57;;;1.40;;
63693;SDS011;49839;51.798;10.954;2022-09-01T05:11:42;7.60;;;1.30;;
63693;SDS011;49839;51.798;10.954;2022-09-01T05:14:11;5.22;;;1.45;;
63693;SDS011;49839;51.798;10.954;2022-09-01T05:16:39;6.07;;;1.40;;
63693;SDS011;49839;51.798;10.954;2022-09-01T05:19:07;8.65;;;1.40;;
63693;SDS011;49839;51.798;10.954;2022-09-01T05:21:41;6.43;;;1.65;;
63693;SDS011;49839;51.798;10.954;2022-09-01T05:24:11;5.10;;;1.52;;
63693;SDS011;49839;51.798;10.954;2022-09-01T05:26:42;4.53;;;1.40;;
63693;SDS011;49839;51.798;10.954;2022-09-01T05:29:12;9.30;;;1.40;;
63693;SDS011;49839;51.798;10.954;2022-09-01T05:31:41;5.65;;;1.35;;
63693;SDS011;49839;51.798;10.954;2022-09-01T05:34:11;5.63;;;1.75;;
63693;SDS011;49839;51.798;10.954;2022-09-01T05:36:40;10.68;;;1.70;;
63693;SDS011;49839;51.798;10.954;2022-09-01T05:39:09;7.53;;;1.50;;
63693;SDS011;49839;51.798;10.954;2022-09-01T05:41:38;3.35;;;1.10;;
63693;SDS011;49839;51.798;10.954;2022-09-01T05:44:07;5.38;;;1.65;;
63693;SDS011;49839;51.798;10.954;2022-09-01T05:46:37;7.70;;;1.58;;
63693;SDS011;49839;51.798;10.954;2022-09-01T05:49:05;4.20;;;1.30;;
63693;SDS011;49839;51.798;10.954;2022-09-01T05:51:34;5.53;;;1.27;;
63693;SDS011;49839;51.798;10.954;2022-09-01T05:54:11;19.98;;;1.88;;
63693;SDS011;49839;51.798;10.954;2022-09-01T05:56:41;4.65;;;1.23;;
63693;SDS011;49839;51.798;10.954;2022-09-01T05:59:10;13.23;;;1.50;;
63693;SDS011;49839;51.798;10.954;2022-09-01T06:01:54;2.53;;;0.98;;
63693;SDS011;49839;51.798;10.954;2022-09-01T06:04:23;3.20;;;1.00;;
63693;SDS011;49839;51.798;10.954;2022-09-01T06:06:52;4.47;;;1.08;;
63693;SDS011;49839;51.798;10.954;2022-09-01T06:09:31;3.40;;;1.02;;
63693;SDS011;49839;51.798;10.954;2022-09-01T06:12:00;7.18;;;1.10;;
63693;SDS011;49839;51.798;10.954;2022-09-01T06:14:28;4.53;;;1.05;;
63693;SDS011;49839;51.798;10.954;2022-09-01T06:16:55;3.20;;;1.20;;
63693;SDS011;49839;51.798;10.954;2022-09-01T06:19:23;2.15;;;0.85;;
63693;SDS011;49839;51.798;10.954;2022-09-01T06:21:51;2.22;;;0.88;;
63693;SDS011;49839;51.798;10.954;2022-09-01T06:24:18;4.38;;;1.20;;
63693;SDS011;49839;51.798;10.954;2022-09-01T06:26:46;3.28;;;1.00;;
63693;SDS011;49839;51.798;10.954;2022-09-01T06:29:15;2.85;;;0.90;;
63693;SDS011;49839;51.798;10.954;2022-09-01T06:31:45;5.28;;;1.08;;
63693;SDS011;49839;51.798;10.954;2022-09-01T06:34:18;3.70;;;1.17;;
63693;SDS011;49839;51.798;10.954;2022-09-01T06:36:46;2.03;;;0.90;;
63693;SDS011;49839;51.798;10.954;2022-09-01T06:39:16;4.53;;;0.90;;
63693;SDS011;49839;51.798;10.954;2022-09-01T06:41:46;3.28;;;0.98;;
63693;SDS011;49839;51.798;10.954;2022-09-01T06:44:19;2.05;;;0.70;;
63693;SDS011;49839;51.798;10.954;2022-09-01T06:46:48;2.75;;;1.17;;
63693;SDS011;49839;51.798;10.954;2022-09-01T06:49:16;5.82;;;1.10;;
63693;SDS011;49839;51.798;10.954;2022-09-01T06:51:44;1.60;;;0.75;;
63693;SDS011;49839;51.798;10.954;2022-09-01T06:54:16;2.88;;;0.80;;
63693;SDS011;49839;51.798;10.954;2022-09-01T06:56:46;3.05;;;0.90;;
63693;SDS011;49839;51.798;10.954;2022-09-01T06:59:16;3.45;;;0.88;;
63693;SDS011;49839;51.798;10.954;2022-09-01T07:01:45;3.30;;;0.80;;
63693;SDS011;49839;51.798;10.954;2022-09-01T07:04:15;3.63;;;0.88;;
63693;SDS011;49839;51.798;10.954;2022-09-01T07:06:45;1.45;;;0.70;;
63693;SDS011;49839;51.798;10.954;2022-09-01T07:09:35;5.10;;;0.80;;
63693;SDS011;49839;51.798;10.954;2022-09-01T07:12:13;2.60;;;0.90;;
63693;SDS011;49839;51.798;10.954;2022-09-01T07:14:53;3.78;;;1.05;;
63693;SDS011;49839;51.798;10.954;2022-09-01T07:17:44;4.00;;;0.68;;
63693;SDS011;49839;51.798;10.954;2022-09-01T07:20:17;3.95;;;0.77;;
63693;SDS011;49839;51.798;10.954;2022-09-01T07:22:50;1.70;;;0.80;;
63693;SDS011;49839;51.798;10.954;2022-09-01T07:25:36;4.50;;;1.08;;
63693;SDS011;49839;51.798;10.954;2022-09-01T07:28:26;2.75;;;0.60;;
63693;SDS011;49839;51.798;10.954;2022-09-01T07:31:04;4.57;;;0.75;;
63693;SDS011;49839;51.798;10.954;2022-09-01T07:33:56;2.20;;;0.80;;
63693;SDS011;49839;51.798;10.954;2022-09-01T07:36:49;3.78;;;0.80;;
63693;SDS011;49839;51.798;10.954;2022-09-01T07:39:42;2.63;;;0.63;;
63693;SDS011;49839;51.798;10.954;2022-09-01T07:42:15;3.33;;;0.90;;
63693;SDS011;49839;51.798;10.954;2022-09-01T07:45:04;3.05;;;0.85;;
63693;SDS011;49839;51.798;10.954;2022-09-01T07:47:51;4.83;;;0.83;;
63693;SDS011;49839;51.798;10.954;2022-09-01T07:50:21;4.85;;;1.15;;
63693;SDS011;49839;51.798;10.954;2022-09-01T07:53:13;5.88;;;0.82;;
63693;SDS011;49839;51.798;10.954;2022-09-01T07:55:43;2.50;;;0.75;;
63693;SDS011;49839;51.798;10.954;2022-09-01T07:58:12;3.22;;;0.90;;
63693;SDS011;49839;51.798;10.954;2022-09-01T08:00:40;2.63;;;0.63;;
63693;SDS011;49839;51.798;10.954;2022-09-01T08:03:12;4.95;;;1.00;;
63693;SDS011;49839;51.798;10.954;2022-09-01T08:05:41;4.53;;;0.88;;
63693;SDS011;49839;51.798;10.954;2022-09-01T08:08:09;2.50;;;1.20;;
63693;SDS011;49839;51.798;10.954;2022-09-01T08:10:48;5.13;;;1.00;;
63693;SDS011;49839;51.798;10.954;2022-09-01T08:13:16;5.05;;;0.73;;
63693;SDS011;49839;51.798;10.954;2022-09-01T08:15:47;2.17;;;0.85;;
63693;SDS011;49839;51.798;10.954;2022-09-01T08:18:34;6.93;;;0.82;;
63693;SDS011;49839;51.798;10.954;2022-09-01T08:21:19;2.22;;;1.10;;
63693;SDS011;49839;51.798;10.954;2022-09-01T08:23:48;4.03;;;0.80;;
63693;SDS011;49839;51.798;10.954;2022-09-01T08:26:18;3.92;;;0.80;;
63693;SDS011;49839;51.798;10.954;2022-09-01T08:28:46;3.95;;;0.75;;
63693;SDS011;49839;51.798;10.954;2022-09-01T08:31:20;5.53;;;0.70;;
63693;SDS011;49839;51.798;10.954;2022-09-01T08:33:50;1.60;;;0.63;;
63693;SDS011;49839;51.798;10.954;2022-09-01T08:36:19;5.28;;;1.00;;
63693;SDS011;49839;51.798;10.954;2022-09-01T08:38:50;3.25;;;0.80;;
63693;SDS011;49839;51.798;10.954;2022-09-01T08:41:18;3.20;;;0.63;;
63693;SDS011;49839;51.798;10.954;2022-09-01T08:44:02;3.67;;;0.80;;
63693;SDS011;49839;51.798;10.954;2022-09-01T08:46:40;5.65;;;0.85;;
63693;SDS011;49839;51.798;10.954;2022-09-01T08:49:12;6.43;;;1.10;;
63693;SDS011;49839;51.798;10.954;2022-09-01T08:51:55;4.28;;;0.88;;
63693;SDS011;49839;51.798;10.954;2022-09-01T08:54:28;6.05;;;1.20;;
63693;SDS011;49839;51.798;10.954;2022-09-01T08:57:04;5.68;;;0.85;;
63693;SDS011;49839;51.798;10.954;2022-09-01T08:59:35;4.32;;;0.80;;
63693;SDS011;49839;51.798;10.954;2022-09-01T09:04:46;7.32;;;0.98;;
63693;SDS011;49839;51.798;10.954;2022-09-01T09:07:23;5.35;;;1.00;;
63693;SDS011;49839;51.798;10.954;2022-09-01T09:10:05;13.32;;;1.33;;
63693;SDS011;49839;51.798;10.954;2022-09-01T09:12:44;4.05;;;1.00;;
63693;SDS011;49839;51.798;10.954;2022-09-01T09:15:24;4.78;;;0.95;;
63693;SDS011;49839;51.798;10.954;2022-09-01T09:17:58;6.10;;;1.00;;
63693;SDS011;49839;51.798;10.954;2022-09-01T09:20:35;5.13;;;1.00;;
63693;SDS011;49839;51.798;10.954;2022-09-01T09:23:05;5.40;;;1.00;;
63693;SDS011;49839;51.798;10.954;2022-09-01T09:25:38;3.80;;;0.80;;
63693;SDS011;49839;51.798;10.954;2022-09-01T09:28:06;6.57;;;1.00;;
63693;SDS011;49839;51.798;10.954;2022-09-01T09:30:34;3.55;;;0.98;;
63693;SDS011;49839;51.798;10.954;2022-09-01T09:33:04;3.63;;;0.93;;
63693;SDS011;49839;51.798;10.954;2022-09-01T09:35:55;3.05;;;0.80;;
63693;SDS011;49839;51.798;10.954;2022-09-01T09:38:44;7.55;;;0.95;;
63693;SDS011;49839;51.798;10.954;2022-09-01T09:41:14;4.75;;;0.73;;
63693;SDS011;49839;51.798;10.954;2022-09-01T09:46:33;2.60;;;0.80;;
63693;SDS011;49839;51.798;10.954;2022-09-01T09:49:14;5.93;;;2.63;;
63693;SDS011;49839;51.798;10.954;2022-09-01T09:52:12;5.93;;;1.00;;
63693;SDS011;49839;51.798;10.954;2022-09-01T09:54:59;8.52;;;1.00;;
63693;SDS011;49839;51.798;10.954;2022-09-01T09:57:30;1.02;;;0.52;;
63693;SDS011;49839;51.798;10.954;2022-09-01T10:00:05;1.33;;;0.50;;
63693;SDS011;49839;51.798;10.954;2022-09-01T10:02:35;2.40;;;0.60;;
63693;SDS011;49839;51.798;10.954;2022-09-01T10:07:52;11.97;;;0.90;;
63693;SDS011;49839;51.798;10.954;2022-09-01T10:10:29;9.87;;;0.83;;
63693;SDS011;49839;51.798;10.954;2022-09-01T10:13:03;3.75;;;0.60;;
63693;SDS011;49839;51.798;10.954;2022-09-01T10:15:31;4.28;;;0.50;;
63693;SDS011;49839;51.798;10.954;2022-09-01T10:18:01;2.80;;;0.45;;
63693;SDS011;49839;51.798;10.954;2022-09-01T10:20:55;1.30;;;0.43;;
63693;SDS011;49839;51.798;10.954;2022-09-01T10:23:27;4.35;;;0.50;;
63693;SDS011;49839;51.798;10.954;2022-09-01T10:25:59;2.90;;;0.60;;
63693;SDS011;49839;51.798;10.954;2022-09-01T10:28:31;0.52;;;0.30;;
63693;SDS011;49839;51.798;10.954;2022-09-01T10:31:01;1.25;;;0.30;;
63693;SDS011;49839;51.798;10.954;2022-09-01T10:33:30;10.48;;;0.70;;
63693;SDS011;49839;51.798;10.954;2022-09-01T10:35:57;4.35;;;0.50;;
63693;SDS011;49839;51.798;10.954;2022-09-01T10:38:26;1.73;;;0.40;;
63693;SDS011;49839;51.798;10.954;2022-09-01T10:40:56;1.73;;;0.38;;
63693;SDS011;49839;51.798;10.954;2022-09-01T10:43:40;2.30;;;0.40;;
63693;SDS011;49839;51.798;10.954;2022-09-01T10:49:21;1.00;;;0.50;;
63693;SDS011;49839;51.798;10.954;2022-09-01T10:55:19;3.10;;;0.30;;
63693;SDS011;49839;51.798;10.954;2022-09-01T10:57:52;5.38;;;0.50;;
63693;SDS011;49839;51.798;10.954;2022-09-01T11:06:44;0.52;;;0.28;;
63693;SDS011;49839;51.798;10.954;2022-09-01T11:09:40;1.10;;;0.35;;
63693;SDS011;49839;51.798;10.954;2022-09-01T11:12:16;10.10;;;1.15;;
63693;SDS011;49839;51.798;10.954;2022-09-01T11:15:01;4.32;;;0.40;;
63693;SDS011;49839;51.798;10.954;2022-09-01T11:17:34;2.22;;;0.22;;
63693;SDS011;49839;51.798;10.954;2022-09-01T11:20:07;1.85;;;0.40;;
63693;SDS011;49839;51.798;10.954;2022-09-01T11:22:37;1.50;;;0.32;;
63693;SDS011;49839;51.798;10.954;2022-09-01T11:28:07;3.25;;;0.47;;
63693;SDS011;49839;51.798;10.954;2022-09-01T11:31:01;2.05;;;0.55;;
63693;SDS011;49839;51.798;10.954;2022-09-01T11:33:43;1.60;;;0.40;;
63693;SDS011;49839;51.798;10.954;2022-09-01T11:36:23;3.92;;;0.60;;
63693;SDS011;49839;51.798;10.954;2022-09-01T11:38:57;1.92;;;0.45;;
63693;SDS011;49839;51.798;10.954;2022-09-01T11:41:31;0.40;;;0.30;;
63693;SDS011;49839;51.798;10.954;2022-09-01T11:44:10;2.08;;;0.40;;
63693;SDS011;49839;51.798;10.954;2022-09-01T11:46:41;1.25;;;0.60;;
63693;SDS011;49839;51.798;10.954;2022-09-01T11:49:21;7.75;;;0.52;;
63693;SDS011;49839;51.798;10.954;2022-09-01T11:51:56;4.22;;;0.50;;
63693;SDS011;49839;51.798;10.954;2022-09-01T11:56:53;2.58;;;0.50;;
63693;SDS011;49839;51.798;10.954;2022-09-01T11:59:30;5.35;;;2.30;;
63693;SDS011;49839;51.798;10.954;2022-09-01T12:02:00;4.03;;;1.60;;
63693;SDS011;49839;51.798;10.954;2022-09-01T12:07:02;2.47;;;0.60;;
63693;SDS011;49839;51.798;10.954;2022-09-01T12:09:36;1.90;;;0.60;;
63693;SDS011;49839;51.798;10.954;2022-09-01T12:14:56;2.20;;;0.30;;
63693;SDS011;49839;51.798;10.954;2022-09-01T12:17:31;4.68;;;0.30;;
63693;SDS011;49839;51.798;10.954;2022-09-01T12:22:55;1.65;;;0.30;;
63693;SDS011;49839;51.798;10.954;2022-09-01T12:27:52;1.33;;;0.30;;
63693;SDS011;49839;51.798;10.954;2022-09-01T12:30:20;3.20;;;0.40;;
63693;SDS011;49839;51.798;10.954;2022-09-01T12:32:49;7.25;;;0.82;;
63693;SDS011;49839;51.798;10.954;2022-09-01T12:35:38;2.95;;;0.50;;
63693;SDS011;49839;51.798;10.954;2022-09-01T12:38:23;5.20;;;0.95;;
63693;SDS011;49839;51.798;10.954;2022-09-01T12:40:55;2.58;;;0.20;;
63693;SDS011;49839;51.798;10.954;2022-09-01T12:43:32;1.30;;;0.40;;
63693;SDS011;49839;51.798;10.954;2022-09-01T12:46:02;0.98;;;0.20;;
63693;SDS011;49839;51.798;10.954;2022-09-01T12:48:32;3.85;;;0.30;;
63693;SDS011;49839;51.798;10.954;2022-09-01T12:51:03;2.72;;;0.40;;
63693;SDS011;49839;51.798;10.954;2022-09-01T12:53:48;1.10;;;0.40;;
63693;SDS011;49839;51.798;10.954;2022-09-01T12:56:19;2.67;;;0.32;;
63693;SDS011;49839;51.798;10.954;2022-09-01T12:58:55;3.72;;;0.40;;
63693;SDS011;49839;51.798;10.954;2022-09-01T13:01:35;1.48;;;0.25;;
63693;SDS011;49839;51.798;10.954;2022-09-01T13:04:11;3.50;;;0.40;;
63693;SDS011;49839;51.798;10.954;2022-09-01T13:06:51;2.28;;;0.40;;
63693;SDS011;49839;51.798;10.954;2022-09-01T13:09:19;4.90;;;0.30;;
63693;SDS011;49839;51.798;10.954;2022-09-01T13:11:47;3.80;;;0.40;;
63693;SDS011;49839;51.798;10.954;2022-09-01T13:14:32;1.10;;;0.30;;
63693;SDS011;49839;51.798;10.954;2022-09-01T13:17:00;4.65;;;0.50;;
63693;SDS011;49839;51.798;10.954;2022-09-01T13:19:27;0.68;;;0.20;;
63693;SDS011;49839;51.798;10.954;2022-09-01T13:21:57;3.05;;;0.40;;
63693;SDS011;49839;51.798;10.954;2022-09-01T13:26:56;0.55;;;0.30;;
63693;SDS011;49839;51.798;10.954;2022-09-01T13:29:44;0.82;;;0.22;;
63693;SDS011;49839;51.798;10.954;2022-09-01T13:32:12;1.58;;;0.38;;
63693;SDS011;49839;51.798;10.954;2022-09-01T13:34:43;1.20;;;0.45;;
63693;SDS011;49839;51.798;10.954;2022-09-01T13:37:13;2.35;;;0.40;;
63693;SDS011;49839;51.798;10.954;2022-09-01T13:39:40;0.82;;;0.30;;
63693;SDS011;49839;51.798;10.954;2022-09-01T13:42:08;1.95;;;0.35;;
63693;SDS011;49839;51.798;10.954;2022-09-01T13:44:37;1.95;;;0.30;;
63693;SDS011;49839;51.798;10.954;2022-09-01T13:47:05;2.25;;;0.40;;
63693;SDS011;49839;51.798;10.954;2022-09-01T13:49:52;2.33;;;0.40;;
63693;SDS011;49839;51.798;10.954;2022-09-01T13:52:39;3.50;;;0.40;;
63693;SDS011;49839;51.798;10.954;2022-09-01T13:55:10;5.88;;;0.60;;
63693;SDS011;49839;51.798;10.954;2022-09-01T13:57:39;2.78;;;0.60;;
63693;SDS011;49839;51.798;10.954;2022-09-01T14:00:08;1.95;;;0.68;;
63693;SDS011;49839;51.798;10.954;2022-09-01T14:02:38;2.22;;;0.60;;
63693;SDS011;49839;51.798;10.954;2022-09-01T14:05:06;1.33;;;0.40;;
63693;SDS011;49839;51.798;10.954;2022-09-01T14:07:35;1.67;;;0.50;;
63693;SDS011;49839;51.798;10.954;2022-09-01T14:10:04;0.95;;;0.20;;
63693;SDS011;49839;51.798;10.954;2022-09-01T14:12:34;2.45;;;0.40;;
63693;SDS011;49839;51.798;10.954;2022-09-01T14:15:01;3.42;;;0.40;;
63693;SDS011;49839;51.798;10.954;2022-09-01T14:20:09;0.30;;;0.20;;
63693;SDS011;49839;51.798;10.954;2022-09-01T14:22:39;0.70;;;0.30;;
63693;SDS011;49839;51.798;10.954;2022-09-01T14:25:09;1.40;;;0.40;;
63693;SDS011;49839;51.798;10.954;2022-09-01T14:27:37;4.05;;;0.45;;
63693;SDS011;49839;51.798;10.954;2022-09-01T14:30:06;1.23;;;0.38;;
63693;SDS011;49839;51.798;10.954;2022-09-01T14:32:36;5.30;;;0.60;;
63693;SDS011;49839;51.798;10.954;2022-09-01T14:35:05;2.75;;;0.30;;
63693;SDS011;49839;51.798;10.954;2022-09-01T14:37:35;1.73;;;0.50;;
63693;SDS011;49839;51.798;10.954;2022-09-01T14:40:04;2.55;;;0.70;;
63693;SDS011;49839;51.798;10.954;2022-09-01T14:42:35;1.55;;;0.30;;
63693;SDS011;49839;51.798;10.954;2022-09-01T14:45:05;1.70;;;0.47;;
63693;SDS011;49839;51.798;10.954;2022-09-01T14:47:36;1.25;;;0.40;;
63693;SDS011;49839;51.798;10.954;2022-09-01T14:50:04;3.80;;;0.45;;
63693;SDS011;49839;51.798;10.954;2022-09-01T14:55:02;1.67;;;0.30;;
63693;SDS011;49839;51.798;10.954;2022-09-01T14:57:30;3.70;;;0.60;;
63693;SDS011;49839;51.798;10.954;2022-09-01T15:00:05;1.98;;;0.40;;
63693;SDS011;49839;51.798;10.954;2022-09-01T15:02:40;7.78;;;0.52;;
63693;SDS011;49839;51.798;10.954;2022-09-01T15:05:09;2.92;;;0.30;;
63693;SDS011;49839;51.798;10.954;2022-09-01T15:10:06;4.05;;;0.20;;
63693;SDS011;49839;51.798;10.954;2022-09-01T15:12:36;1.67;;;0.30;;
63693;SDS011;49839;51.798;10.954;2022-09-01T15:15:07;2.67;;;0.30;;
63693;SDS011;49839;51.798;10.954;2022-09-01T15:17:35;2.53;;;0.30;;
63693;SDS011;49839;51.798;10.954;2022-09-01T15:20:05;3.13;;;0.40;;
63693;SDS011;49839;51.798;10.954;2022-09-01T15:22:51;5.13;;;0.57;;
63693;SDS011;49839;51.798;10.954;2022-09-01T15:25:19;1.63;;;0.40;;
63693;SDS011;49839;51.798;10.954;2022-09-01T15:27:46;6.63;;;0.40;;
63693;SDS011;49839;51.798;10.954;2022-09-01T15:30:15;2.20;;;0.43;;
63693;SDS011;49839;51.798;10.954;2022-09-01T15:32:44;1.13;;;0.40;;
63693;SDS011;49839;51.798;10.954;2022-09-01T15:35:14;3.70;;;0.40;;
63693;SDS011;49839;51.798;10.954;2022-09-01T15:37:47;1.92;;;0.30;;
63693;SDS011;49839;51.798;10.954;2022-09-01T15:40:16;0.63;;;0.20;;
63693;SDS011;49839;51.798;10.954;2022-09-01T15:42:45;2.13;;;0.40;;
63693;SDS011;49839;51.798;10.954;2022-09-01T15:45:13;1.05;;;0.40;;
63693;SDS011;49839;51.798;10.954;2022-09-01T15:47:44;4.78;;;0.50;;
63693;SDS011;49839;51.798;10.954;2022-09-01T15:50:14;1.88;;;0.25;;
63693;SDS011;49839;51.798;10.954;2022-09-01T15:52:50;2.83;;;0.40;;
63693;SDS011;49839;51.798;10.954;2022-09-01T15:55:20;2.25;;;0.50;;